sensor_id;sensor_type;location;lat;lon;timestamp;temperature;humidity
12959;DHT22;6544;51.666;6.634;2023-03-23T00:01:57;12.50;99.90
12959;DHT22;6544;51.666;6.634;2023-03-23T00:04:23;12.50;99.90
12959;DHT22;6544;51.666;6.634;2023-03-23T00:06:52;12.50;99.90
12959;DHT22;6544;51.666;6.634;2023-03-23T00:09:20;12.50;99.90
12959;DHT22;6544;51.666;6.634;2023-03-23T00:11:50;12.50;99.90
12959;DHT22;6544;51.666;6.634;2023-03-23T00:14:22;12.50;99.90
12959;DHT22;6544;51.666;6.634;2023-03-23T00:16:50;12.60;99.90
12959;DHT22;6544;51.666;6.634;2023-03-23T00:19:17;12.60;99.90
12959;DHT22;6544;51.666;6.634;2023-03-23T00:21:46;12.60;99.90
12959;DHT22;6544;51.666;6.634;2023-03-23T00:24:14;12.60;99.90
12959;DHT22;6544;51.666;6.634;2023-03-23T00:26:45;12.70;99.90
12959;DHT22;6544;51.666;6.634;2023-03-23T00:29:13;12.70;99.90
12959;DHT22;6544;51.666;6.634;2023-03-23T00:31:41;12.70;99.90
12959;DHT22;6544;51.666;6.634;2023-03-23T00:34:13;12.70;99.90
12959;DHT22;6544;51.666;6.634;2023-03-23T00:36:45;12.70;99.90
12959;DHT22;6544;51.666;6.634;2023-03-23T00:39:13;12.70;99.90
12959;DHT22;6544;51.666;6.634;2023-03-23T00:41:41;12.70;99.90
12959;DHT22;6544;51.666;6.634;2023-03-23T00:44:09;12.70;99.90
12959;DHT22;6544;51.666;6.634;2023-03-23T00:46:42;12.70;99.90
12959;DHT22;6544;51.666;6.634;2023-03-23T00:49:12;12.70;99.90
12959;DHT22;6544;51.666;6.634;2023-03-23T00:51:39;12.70;99.90
12959;DHT22;6544;51.666;6.634;2023-03-23T00:54:07;12.70;99.90
12959;DHT22;6544;51.666;6.634;2023-03-23T00:56:35;12.70;99.90
12959;DHT22;6544;51.666;6.634;2023-03-23T00:59:02;12.70;99.90
12959;DHT22;6544;51.666;6.634;2023-03-23T01:01:31;12.80;99.90
12959;DHT22;6544;51.666;6.634;2023-03-23T01:03:58;12.70;99.90
12959;DHT22;6544;51.666;6.634;2023-03-23T01:06:27;12.70;99.90
12959;DHT22;6544;51.666;6.634;2023-03-23T01:08:56;12.80;99.90
12959;DHT22;6544;51.666;6.634;2023-03-23T01:11:23;12.80;99.90
12959;DHT22;6544;51.666;6.634;2023-03-23T01:13:50;12.80;99.90
12959;DHT22;6544;51.666;6.634;2023-03-23T01:16:17;12.80;99.90
12959;DHT22;6544;51.666;6.634;2023-03-23T01:18:45;12.80;99.90
12959;DHT22;6544;51.666;6.634;2023-03-23T01:21:14;12.80;99.90
12959;DHT22;6544;51.666;6.634;2023-03-23T01:23:42;12.80;99.90
12959;DHT22;6544;51.666;6.634;2023-03-23T01:26:11;12.80;99.90
12959;DHT22;6544;51.666;6.634;2023-03-23T01:28:38;12.80;99.90
12959;DHT22;6544;51.666;6.634;2023-03-23T01:31:07;12.80;99.90
12959;DHT22;6544;51.666;6.634;2023-03-23T01:33:34;12.80;99.90
12959;DHT22;6544;51.666;6.634;2023-03-23T01:36:05;12.80;99.90
12959;DHT22;6544;51.666;6.634;2023-03-23T01:38:33;12.80;99.90
12959;DHT22;6544;51.666;6.634;2023-03-23T01:41:00;12.90;99.90
12959;DHT22;6544;51.666;6.634;2023-03-23T01:43:27;12.90;99.90
12959;DHT22;6544;51.666;6.634;2023-03-23T01:45:54;12.90;99.90
12959;DHT22;6544;51.666;6.634;2023-03-23T01:48:24;12.90;99.90
12959;DHT22;6544;51.666;6.634;2023-03-23T01:50:56;12.90;99.90
12959;DHT22;6544;51.666;6.634;2023-03-23T01:53:30;12.90;99.90
12959;DHT22;6544;51.666;6.634;2023-03-23T01:55:58;12.90;99.90
12959;DHT22;6544;51.666;6.634;2023-03-23T01:58:28;12.90;99.90
12959;DHT22;6544;51.666;6.634;2023-03-23T02:00:58;12.90;99.90
12959;DHT22;6544;51.666;6.634;2023-03-23T02:03:29;13.00;99.90
12959;DHT22;6544;51.666;6.634;2023-03-23T02:05:58;12.90;99.90
12959;DHT22;6544;51.666;6.634;2023-03-23T02:08:27;12.90;99.90
12959;DHT22;6544;51.666;6.634;2023-03-23T02:10:55;13.00;99.90
12959;DHT22;6544;51.666;6.634;2023-03-23T02:13:22;12.90;99.90
12959;DHT22;6544;51.666;6.634;2023-03-23T02:15:57;12.90;99.90
12959;DHT22;6544;51.666;6.634;2023-03-23T02:18:39;12.90;99.90
12959;DHT22;6544;51.666;6.634;2023-03-23T02:27:20;12.80;99.90
12959;DHT22;6544;51.666;6.634;2023-03-23T02:30:08;12.90;99.90
12959;DHT22;6544;51.666;6.634;2023-03-23T02:32:51;12.80;99.90
12959;DHT22;6544;51.666;6.634;2023-03-23T02:35:29;12.80;99.90
12959;DHT22;6544;51.666;6.634;2023-03-23T02:37:59;12.80;99.90
12959;DHT22;6544;51.666;6.634;2023-03-23T02:40:30;12.80;99.90
12959;DHT22;6544;51.666;6.634;2023-03-23T02:42:59;12.80;99.90
12959;DHT22;6544;51.666;6.634;2023-03-23T02:45:29;12.80;99.90
12959;DHT22;6544;51.666;6.634;2023-03-23T02:47:56;12.80;99.90
12959;DHT22;6544;51.666;6.634;2023-03-23T02:50:27;12.80;99.90
12959;DHT22;6544;51.666;6.634;2023-03-23T02:52:56;12.80;99.90
12959;DHT22;6544;51.666;6.634;2023-03-23T02:55:27;12.80;99.90
12959;DHT22;6544;51.666;6.634;2023-03-23T02:57:55;12.80;99.90
12959;DHT22;6544;51.666;6.634;2023-03-23T03:00:23;12.70;99.90
12959;DHT22;6544;51.666;6.634;2023-03-23T03:02:51;12.80;99.90
12959;DHT22;6544;51.666;6.634;2023-03-23T03:05:30;12.80;99.90
12959;DHT22;6544;51.666;6.634;2023-03-23T03:08:09;12.80;99.90
12959;DHT22;6544;51.666;6.634;2023-03-23T03:10:45;12.80;99.90
12959;DHT22;6544;51.666;6.634;2023-03-23T03:13:21;12.80;99.90
12959;DHT22;6544;51.666;6.634;2023-03-23T03:15:55;12.80;99.90
12959;DHT22;6544;51.666;6.634;2023-03-23T03:18:30;12.70;99.90
12959;DHT22;6544;51.666;6.634;2023-03-23T03:21:02;12.80;99.90
12959;DHT22;6544;51.666;6.634;2023-03-23T03:23:32;12.70;99.90
12959;DHT22;6544;51.666;6.634;2023-03-23T03:26:01;12.70;99.90
12959;DHT22;6544;51.666;6.634;2023-03-23T03:28:31;12.70;99.90
12959;DHT22;6544;51.666;6.634;2023-03-23T03:31:02;12.70;99.90
12959;DHT22;6544;51.666;6.634;2023-03-23T03:33:30;12.80;99.90
12959;DHT22;6544;51.666;6.634;2023-03-23T03:36:02;12.70;99.90
12959;DHT22;6544;51.666;6.634;2023-03-23T03:38:29;12.70;99.90
12959;DHT22;6544;51.666;6.634;2023-03-23T03:41:07;12.70;99.90
12959;DHT22;6544;51.666;6.634;2023-03-23T03:43:34;12.70;99.90
12959;DHT22;6544;51.666;6.634;2023-03-23T03:46:01;12.80;99.90
12959;DHT22;6544;51.666;6.634;2023-03-23T03:48:28;12.80;99.90
12959;DHT22;6544;51.666;6.634;2023-03-23T03:50:55;12.80;99.90
12959;DHT22;6544;51.666;6.634;2023-03-23T03:53:23;12.70;99.90
12959;DHT22;6544;51.666;6.634;2023-03-23T03:55:50;12.70;99.90
12959;DHT22;6544;51.666;6.634;2023-03-23T03:58:21;12.80;99.90
12959;DHT22;6544;51.666;6.634;2023-03-23T04:00:48;12.80;99.90
12959;DHT22;6544;51.666;6.634;2023-03-23T04:03:15;12.80;99.90
12959;DHT22;6544;51.666;6.634;2023-03-23T04:05:42;12.80;99.90
12959;DHT22;6544;51.666;6.634;2023-03-23T04:08:10;12.80;99.90
12959;DHT22;6544;51.666;6.634;2023-03-23T04:10:39;12.80;99.90
12959;DHT22;6544;51.666;6.634;2023-03-23T04:13:06;12.80;99.90
12959;DHT22;6544;51.666;6.634;2023-03-23T04:15:33;12.80;99.90
12959;DHT22;6544;51.666;6.634;2023-03-23T04:17:59;12.70;99.90
12959;DHT22;6544;51.666;6.634;2023-03-23T04:20:26;12.70;99.90
12959;DHT22;6544;51.666;6.634;2023-03-23T04:22:53;12.70;99.90
12959;DHT22;6544;51.666;6.634;2023-03-23T04:25:21;12.70;99.90
12959;DHT22;6544;51.666;6.634;2023-03-23T04:27:50;12.70;99.90
12959;DHT22;6544;51.666;6.634;2023-03-23T04:30:20;12.80;99.90
12959;DHT22;6544;51.666;6.634;2023-03-23T04:32:47;12.80;99.90
12959;DHT22;6544;51.666;6.634;2023-03-23T04:35:16;12.80;99.90
12959;DHT22;6544;51.666;6.634;2023-03-23T04:37:44;12.80;99.90
12959;DHT22;6544;51.666;6.634;2023-03-23T04:40:12;12.80;99.90
12959;DHT22;6544;51.666;6.634;2023-03-23T04:42:40;12.80;99.90
12959;DHT22;6544;51.666;6.634;2023-03-23T04:45:13;12.80;99.90
12959;DHT22;6544;51.666;6.634;2023-03-23T04:47:41;12.80;99.90
12959;DHT22;6544;51.666;6.634;2023-03-23T04:50:15;12.80;99.90
12959;DHT22;6544;51.666;6.634;2023-03-23T04:52:42;12.80;99.90
12959;DHT22;6544;51.666;6.634;2023-03-23T04:55:11;12.90;99.90
12959;DHT22;6544;51.666;6.634;2023-03-23T04:57:39;12.80;99.90
12959;DHT22;6544;51.666;6.634;2023-03-23T05:00:07;12.80;99.90
12959;DHT22;6544;51.666;6.634;2023-03-23T05:02:38;12.90;99.90
12959;DHT22;6544;51.666;6.634;2023-03-23T05:05:06;12.80;99.90
12959;DHT22;6544;51.666;6.634;2023-03-23T05:07:33;12.80;99.90
12959;DHT22;6544;51.666;6.634;2023-03-23T05:10:00;12.80;99.90
12959;DHT22;6544;51.666;6.634;2023-03-23T05:12:27;12.80;99.90
12959;DHT22;6544;51.666;6.634;2023-03-23T05:14:54;12.80;99.90
12959;DHT22;6544;51.666;6.634;2023-03-23T05:17:21;12.80;99.90
12959;DHT22;6544;51.666;6.634;2023-03-23T05:19:51;12.80;99.90
12959;DHT22;6544;51.666;6.634;2023-03-23T05:22:18;12.80;99.90
12959;DHT22;6544;51.666;6.634;2023-03-23T05:24:46;12.80;99.90
12959;DHT22;6544;51.666;6.634;2023-03-23T05:27:13;12.80;99.90
12959;DHT22;6544;51.666;6.634;2023-03-23T05:29:43;12.80;99.90
12959;DHT22;6544;51.666;6.634;2023-03-23T05:32:11;12.80;99.90
12959;DHT22;6544;51.666;6.634;2023-03-23T05:34:38;12.90;99.90
12959;DHT22;6544;51.666;6.634;2023-03-23T05:37:07;12.90;99.90
12959;DHT22;6544;51.666;6.634;2023-03-23T05:39:35;12.80;99.90
12959;DHT22;6544;51.666;6.634;2023-03-23T05:42:03;12.80;99.90
12959;DHT22;6544;51.666;6.634;2023-03-23T05:44:30;12.80;99.90
12959;DHT22;6544;51.666;6.634;2023-03-23T05:46:57;12.80;99.90
12959;DHT22;6544;51.666;6.634;2023-03-23T05:49:24;12.80;99.90
12959;DHT22;6544;51.666;6.634;2023-03-23T05:51:52;12.80;99.90
12959;DHT22;6544;51.666;6.634;2023-03-23T05:54:20;12.80;99.90
12959;DHT22;6544;51.666;6.634;2023-03-23T05:56:48;12.90;99.90
12959;DHT22;6544;51.666;6.634;2023-03-23T05:59:15;12.80;99.90
12959;DHT22;6544;51.666;6.634;2023-03-23T06:01:42;12.80;99.90
12959;DHT22;6544;51.666;6.634;2023-03-23T06:04:09;12.80;99.90
12959;DHT22;6544;51.666;6.634;2023-03-23T06:06:37;12.80;99.90
12959;DHT22;6544;51.666;6.634;2023-03-23T06:09:05;12.80;99.90
12959;DHT22;6544;51.666;6.634;2023-03-23T06:11:37;12.80;99.90
12959;DHT22;6544;51.666;6.634;2023-03-23T06:14:07;12.80;99.90
12959;DHT22;6544;51.666;6.634;2023-03-23T06:16:37;12.70;99.90
12959;DHT22;6544;51.666;6.634;2023-03-23T06:19:07;12.70;99.90
12959;DHT22;6544;51.666;6.634;2023-03-23T06:21:38;12.70;99.90
12959;DHT22;6544;51.666;6.634;2023-03-23T06:24:09;12.70;99.90
12959;DHT22;6544;51.666;6.634;2023-03-23T06:26:41;12.70;99.90
12959;DHT22;6544;51.666;6.634;2023-03-23T06:29:10;12.70;99.90
12959;DHT22;6544;51.666;6.634;2023-03-23T06:31:41;12.80;99.90
12959;DHT22;6544;51.666;6.634;2023-03-23T06:34:11;12.80;99.90
12959;DHT22;6544;51.666;6.634;2023-03-23T06:36:39;12.80;99.90
12959;DHT22;6544;51.666;6.634;2023-03-23T06:39:11;12.70;99.90
12959;DHT22;6544;51.666;6.634;2023-03-23T06:41:44;12.70;99.90
12959;DHT22;6544;51.666;6.634;2023-03-23T06:44:15;12.70;99.90
12959;DHT22;6544;51.666;6.634;2023-03-23T06:46:46;12.70;99.90
12959;DHT22;6544;51.666;6.634;2023-03-23T06:49:17;12.70;99.90
12959;DHT22;6544;51.666;6.634;2023-03-23T06:51:46;12.70;99.90
12959;DHT22;6544;51.666;6.634;2023-03-23T06:54:16;12.70;99.90
12959;DHT22;6544;51.666;6.634;2023-03-23T06:56:48;12.70;99.90
12959;DHT22;6544;51.666;6.634;2023-03-23T06:59:19;12.70;99.90
12959;DHT22;6544;51.666;6.634;2023-03-23T07:01:50;12.70;99.90
12959;DHT22;6544;51.666;6.634;2023-03-23T07:04:19;12.70;99.90
12959;DHT22;6544;51.666;6.634;2023-03-23T07:06:48;12.70;99.90
12959;DHT22;6544;51.666;6.634;2023-03-23T07:09:19;12.80;99.90
12959;DHT22;6544;51.666;6.634;2023-03-23T07:11:52;12.70;99.90
12959;DHT22;6544;51.666;6.634;2023-03-23T07:14:22;12.80;99.90
12959;DHT22;6544;51.666;6.634;2023-03-23T07:16:55;12.80;99.90
12959;DHT22;6544;51.666;6.634;2023-03-23T07:19:28;12.80;99.90
12959;DHT22;6544;51.666;6.634;2023-03-23T07:21:57;12.80;99.90
12959;DHT22;6544;51.666;6.634;2023-03-23T07:24:25;12.90;99.90
12959;DHT22;6544;51.666;6.634;2023-03-23T07:26:54;12.90;99.90
12959;DHT22;6544;51.666;6.634;2023-03-23T07:29:21;12.90;99.90
12959;DHT22;6544;51.666;6.634;2023-03-23T07:31:48;13.00;99.90
12959;DHT22;6544;51.666;6.634;2023-03-23T07:34:15;12.90;99.90
12959;DHT22;6544;51.666;6.634;2023-03-23T07:36:42;12.90;99.90
12959;DHT22;6544;51.666;6.634;2023-03-23T07:39:09;12.90;99.90
12959;DHT22;6544;51.666;6.634;2023-03-23T07:41:37;13.00;99.90
12959;DHT22;6544;51.666;6.634;2023-03-23T07:44:06;13.00;99.90
12959;DHT22;6544;51.666;6.634;2023-03-23T07:46:33;13.00;99.90
12959;DHT22;6544;51.666;6.634;2023-03-23T07:49:00;13.00;99.90
12959;DHT22;6544;51.666;6.634;2023-03-23T07:51:30;13.00;99.90
12959;DHT22;6544;51.666;6.634;2023-03-23T07:53:57;13.00;99.90
12959;DHT22;6544;51.666;6.634;2023-03-23T07:56:25;13.00;99.90
12959;DHT22;6544;51.666;6.634;2023-03-23T07:58:52;13.00;99.90
12959;DHT22;6544;51.666;6.634;2023-03-23T08:01:20;13.00;99.90
12959;DHT22;6544;51.666;6.634;2023-03-23T08:03:48;12.90;99.90
12959;DHT22;6544;51.666;6.634;2023-03-23T08:06:15;12.90;99.90
12959;DHT22;6544;51.666;6.634;2023-03-23T08:08:42;13.00;99.90
12959;DHT22;6544;51.666;6.634;2023-03-23T08:11:09;12.90;99.90
12959;DHT22;6544;51.666;6.634;2023-03-23T08:13:36;12.90;99.90
12959;DHT22;6544;51.666;6.634;2023-03-23T08:16:04;12.90;99.90
12959;DHT22;6544;51.666;6.634;2023-03-23T08:18:33;12.90;99.90
12959;DHT22;6544;51.666;6.634;2023-03-23T08:21:00;12.90;99.90
12959;DHT22;6544;51.666;6.634;2023-03-23T08:23:27;12.80;99.90
12959;DHT22;6544;51.666;6.634;2023-03-23T08:25:54;12.80;99.90
12959;DHT22;6544;51.666;6.634;2023-03-23T08:28:21;12.80;99.90
12959;DHT22;6544;51.666;6.634;2023-03-23T08:30:49;12.70;99.90
12959;DHT22;6544;51.666;6.634;2023-03-23T08:33:16;12.70;99.90
12959;DHT22;6544;51.666;6.634;2023-03-23T08:35:44;12.70;99.90
12959;DHT22;6544;51.666;6.634;2023-03-23T08:38:11;12.50;99.90
12959;DHT22;6544;51.666;6.634;2023-03-23T08:40:39;12.60;99.90
12959;DHT22;6544;51.666;6.634;2023-03-23T08:43:06;12.60;99.90
12959;DHT22;6544;51.666;6.634;2023-03-23T08:45:33;12.60;99.90
12959;DHT22;6544;51.666;6.634;2023-03-23T08:48:00;12.60;99.90
12959;DHT22;6544;51.666;6.634;2023-03-23T08:50:28;12.60;99.90
12959;DHT22;6544;51.666;6.634;2023-03-23T08:52:57;12.60;99.90
12959;DHT22;6544;51.666;6.634;2023-03-23T08:55:24;12.60;99.90
12959;DHT22;6544;51.666;6.634;2023-03-23T08:57:51;12.50;99.90
12959;DHT22;6544;51.666;6.634;2023-03-23T09:00:20;12.70;99.90
12959;DHT22;6544;51.666;6.634;2023-03-23T09:02:51;12.30;99.90
12959;DHT22;6544;51.666;6.634;2023-03-23T09:05:20;11.80;99.90
12959;DHT22;6544;51.666;6.634;2023-03-23T09:07:51;11.60;99.90
12959;DHT22;6544;51.666;6.634;2023-03-23T09:10:20;11.70;99.90
12959;DHT22;6544;51.666;6.634;2023-03-23T09:12:47;11.60;99.90
12959;DHT22;6544;51.666;6.634;2023-03-23T09:15:16;11.40;99.90
12959;DHT22;6544;51.666;6.634;2023-03-23T09:17:44;11.40;99.90
12959;DHT22;6544;51.666;6.634;2023-03-23T09:20:13;11.40;99.90
12959;DHT22;6544;51.666;6.634;2023-03-23T09:22:42;11.30;99.90
12959;DHT22;6544;51.666;6.634;2023-03-23T09:25:12;11.40;99.90
12959;DHT22;6544;51.666;6.634;2023-03-23T09:27:41;11.40;99.90
12959;DHT22;6544;51.666;6.634;2023-03-23T09:30:12;11.40;99.90
12959;DHT22;6544;51.666;6.634;2023-03-23T09:32:40;11.40;99.90
12959;DHT22;6544;51.666;6.634;2023-03-23T09:35:09;11.40;99.90
12959;DHT22;6544;51.666;6.634;2023-03-23T09:37:37;11.50;99.90
12959;DHT22;6544;51.666;6.634;2023-03-23T09:40:07;11.50;99.90
12959;DHT22;6544;51.666;6.634;2023-03-23T09:42:46;11.50;99.90
12959;DHT22;6544;51.666;6.634;2023-03-23T09:45:21;11.50;99.90
12959;DHT22;6544;51.666;6.634;2023-03-23T09:48:05;11.60;99.90
12959;DHT22;6544;51.666;6.634;2023-03-23T09:50:35;11.60;99.90
12959;DHT22;6544;51.666;6.634;2023-03-23T09:53:09;11.70;99.90
12959;DHT22;6544;51.666;6.634;2023-03-23T09:55:37;11.70;99.90
12959;DHT22;6544;51.666;6.634;2023-03-23T09:58:14;11.70;99.90
12959;DHT22;6544;51.666;6.634;2023-03-23T10:00:47;11.70;99.90
12959;DHT22;6544;51.666;6.634;2023-03-23T10:03:16;11.80;99.90
12959;DHT22;6544;51.666;6.634;2023-03-23T10:05:45;11.80;99.90
12959;DHT22;6544;51.666;6.634;2023-03-23T10:08:15;11.80;99.90
12959;DHT22;6544;51.666;6.634;2023-03-23T10:10:57;11.80;99.90
12959;DHT22;6544;51.666;6.634;2023-03-23T10:13:39;11.90;99.90
12959;DHT22;6544;51.666;6.634;2023-03-23T10:16:10;11.90;99.90
12959;DHT22;6544;51.666;6.634;2023-03-23T10:18:42;12.00;99.90
12959;DHT22;6544;51.666;6.634;2023-03-23T10:21:14;12.00;99.90
12959;DHT22;6544;51.666;6.634;2023-03-23T10:23:51;12.00;99.90
12959;DHT22;6544;51.666;6.634;2023-03-23T10:26:33;11.90;99.90
12959;DHT22;6544;51.666;6.634;2023-03-23T10:29:10;12.00;99.90
12959;DHT22;6544;51.666;6.634;2023-03-23T10:31:41;12.00;99.90
12959;DHT22;6544;51.666;6.634;2023-03-23T10:34:11;11.90;99.90
12959;DHT22;6544;51.666;6.634;2023-03-23T10:36:50;11.90;99.90
12959;DHT22;6544;51.666;6.634;2023-03-23T10:39:21;12.00;99.90
12959;DHT22;6544;51.666;6.634;2023-03-23T10:41:49;12.00;99.90
12959;DHT22;6544;51.666;6.634;2023-03-23T10:44:19;12.00;99.90
12959;DHT22;6544;51.666;6.634;2023-03-23T10:46:53;12.00;99.90
12959;DHT22;6544;51.666;6.634;2023-03-23T10:49:25;12.00;99.90
12959;DHT22;6544;51.666;6.634;2023-03-23T10:51:59;11.90;99.90
12959;DHT22;6544;51.666;6.634;2023-03-23T10:54:35;11.80;99.90
12959;DHT22;6544;51.666;6.634;2023-03-23T10:57:12;11.80;99.90
12959;DHT22;6544;51.666;6.634;2023-03-23T10:59:41;11.70;99.90
12959;DHT22;6544;51.666;6.634;2023-03-23T11:02:15;11.70;99.90
12959;DHT22;6544;51.666;6.634;2023-03-23T11:04:46;11.80;99.90
12959;DHT22;6544;51.666;6.634;2023-03-23T11:07:20;11.80;99.90
12959;DHT22;6544;51.666;6.634;2023-03-23T11:09:53;11.80;99.90
12959;DHT22;6544;51.666;6.634;2023-03-23T11:12:21;11.80;99.90
12959;DHT22;6544;51.666;6.634;2023-03-23T11:14:50;11.90;99.90
12959;DHT22;6544;51.666;6.634;2023-03-23T11:17:22;12.00;99.90
12959;DHT22;6544;51.666;6.634;2023-03-23T11:19:50;12.00;99.90
12959;DHT22;6544;51.666;6.634;2023-03-23T11:22:24;12.00;99.90
12959;DHT22;6544;51.666;6.634;2023-03-23T11:24:53;12.00;99.90
12959;DHT22;6544;51.666;6.634;2023-03-23T11:27:22;12.20;99.90
12959;DHT22;6544;51.666;6.634;2023-03-23T11:29:53;12.30;99.90
12959;DHT22;6544;51.666;6.634;2023-03-23T11:32:24;12.40;99.90
12959;DHT22;6544;51.666;6.634;2023-03-23T11:34:54;12.50;99.90
12959;DHT22;6544;51.666;6.634;2023-03-23T11:37:28;12.40;99.90
12959;DHT22;6544;51.666;6.634;2023-03-23T11:39:57;12.50;99.90
12959;DHT22;6544;51.666;6.634;2023-03-23T11:42:26;12.60;99.90
12959;DHT22;6544;51.666;6.634;2023-03-23T11:45:14;12.70;99.90
12959;DHT22;6544;51.666;6.634;2023-03-23T11:47:46;12.80;99.90
12959;DHT22;6544;51.666;6.634;2023-03-23T11:50:18;12.90;99.90
12959;DHT22;6544;51.666;6.634;2023-03-23T11:52:49;13.20;99.90
12959;DHT22;6544;51.666;6.634;2023-03-23T11:55:20;13.20;99.90
12959;DHT22;6544;51.666;6.634;2023-03-23T11:57:48;13.30;99.90
12959;DHT22;6544;51.666;6.634;2023-03-23T12:00:19;13.50;99.90
12959;DHT22;6544;51.666;6.634;2023-03-23T12:05:46;13.70;99.90
12959;DHT22;6544;51.666;6.634;2023-03-23T12:08:28;13.80;99.90
12959;DHT22;6544;51.666;6.634;2023-03-23T12:11:01;13.90;99.90
12959;DHT22;6544;51.666;6.634;2023-03-23T12:13:42;14.00;99.90
12959;DHT22;6544;51.666;6.634;2023-03-23T12:16:25;14.10;99.90
12959;DHT22;6544;51.666;6.634;2023-03-23T12:19:03;14.10;99.90
12959;DHT22;6544;51.666;6.634;2023-03-23T12:21:42;14.10;99.90
12959;DHT22;6544;51.666;6.634;2023-03-23T12:24:18;14.20;99.90
12959;DHT22;6544;51.666;6.634;2023-03-23T12:26:54;14.30;99.90
12959;DHT22;6544;51.666;6.634;2023-03-23T12:32:54;14.50;99.90
12959;DHT22;6544;51.666;6.634;2023-03-23T12:35:38;14.50;99.90
12959;DHT22;6544;51.666;6.634;2023-03-23T12:38:19;14.50;99.90
12959;DHT22;6544;51.666;6.634;2023-03-23T12:41:12;14.50;99.90
12959;DHT22;6544;51.666;6.634;2023-03-23T12:43:49;14.50;99.90
12959;DHT22;6544;51.666;6.634;2023-03-23T12:46:48;14.50;99.90
12959;DHT22;6544;51.666;6.634;2023-03-23T12:49:22;14.50;99.90
12959;DHT22;6544;51.666;6.634;2023-03-23T12:51:54;14.50;99.90
12959;DHT22;6544;51.666;6.634;2023-03-23T12:54:26;14.60;99.90
12959;DHT22;6544;51.666;6.634;2023-03-23T12:56:57;14.60;99.90
12959;DHT22;6544;51.666;6.634;2023-03-23T12:59:30;14.70;99.90
12959;DHT22;6544;51.666;6.634;2023-03-23T13:02:05;14.70;99.90
12959;DHT22;6544;51.666;6.634;2023-03-23T13:04:40;14.80;99.90
12959;DHT22;6544;51.666;6.634;2023-03-23T13:07:14;15.00;99.90
12959;DHT22;6544;51.666;6.634;2023-03-23T13:09:49;15.10;99.90
12959;DHT22;6544;51.666;6.634;2023-03-23T13:12:18;14.90;99.90
12959;DHT22;6544;51.666;6.634;2023-03-23T13:14:52;14.80;99.90
12959;DHT22;6544;51.666;6.634;2023-03-23T13:17:29;14.90;99.90
12959;DHT22;6544;51.666;6.634;2023-03-23T13:20:13;14.90;99.90
12959;DHT22;6544;51.666;6.634;2023-03-23T13:22:47;15.10;99.90
12959;DHT22;6544;51.666;6.634;2023-03-23T13:25:22;15.30;99.90
12959;DHT22;6544;51.666;6.634;2023-03-23T13:27:58;15.20;99.90
12959;DHT22;6544;51.666;6.634;2023-03-23T13:30:27;15.20;99.90
12959;DHT22;6544;51.666;6.634;2023-03-23T13:33:02;15.10;99.90
12959;DHT22;6544;51.666;6.634;2023-03-23T13:35:36;15.20;99.90
12959;DHT22;6544;51.666;6.634;2023-03-23T13:38:15;15.20;99.90
12959;DHT22;6544;51.666;6.634;2023-03-23T13:40:45;15.20;99.90
12959;DHT22;6544;51.666;6.634;2023-03-23T13:43:12;15.10;99.90
12959;DHT22;6544;51.666;6.634;2023-03-23T13:45:45;15.30;99.90
12959;DHT22;6544;51.666;6.634;2023-03-23T13:48:20;15.50;98.70
12959;DHT22;6544;51.666;6.634;2023-03-23T13:50:55;15.60;97.70
12959;DHT22;6544;51.666;6.634;2023-03-23T13:53:25;15.50;95.10
12959;DHT22;6544;51.666;6.634;2023-03-23T13:56:06;15.50;97.40
12959;DHT22;6544;51.666;6.634;2023-03-23T13:58:44;15.60;99.90
12959;DHT22;6544;51.666;6.634;2023-03-23T14:01:15;15.50;94.40
12959;DHT22;6544;51.666;6.634;2023-03-23T14:03:45;15.40;94.50
12959;DHT22;6544;51.666;6.634;2023-03-23T14:06:19;15.40;99.00
12959;DHT22;6544;51.666;6.634;2023-03-23T14:08:50;15.50;95.00
12959;DHT22;6544;51.666;6.634;2023-03-23T14:11:22;15.40;95.00
12959;DHT22;6544;51.666;6.634;2023-03-23T14:14:14;15.30;94.20
12959;DHT22;6544;51.666;6.634;2023-03-23T14:16:43;15.40;97.80
12959;DHT22;6544;51.666;6.634;2023-03-23T14:19:17;15.50;96.90
12959;DHT22;6544;51.666;6.634;2023-03-23T14:21:52;15.50;94.60
12959;DHT22;6544;51.666;6.634;2023-03-23T14:24:21;15.50;91.80
12959;DHT22;6544;51.666;6.634;2023-03-23T14:26:50;15.40;94.30
12959;DHT22;6544;51.666;6.634;2023-03-23T14:29:20;15.40;95.20
12959;DHT22;6544;51.666;6.634;2023-03-23T14:31:53;15.40;94.40
12959;DHT22;6544;51.666;6.634;2023-03-23T14:34:22;15.50;96.50
12959;DHT22;6544;51.666;6.634;2023-03-23T14:36:53;15.50;95.30
12959;DHT22;6544;51.666;6.634;2023-03-23T14:39:22;15.50;99.70
12959;DHT22;6544;51.666;6.634;2023-03-23T14:41:51;15.40;98.30
12959;DHT22;6544;51.666;6.634;2023-03-23T14:44:24;15.30;99.60
12959;DHT22;6544;51.666;6.634;2023-03-23T14:46:53;15.40;97.20
12959;DHT22;6544;51.666;6.634;2023-03-23T14:49:32;15.20;95.80
12959;DHT22;6544;51.666;6.634;2023-03-23T14:52:08;15.20;98.90
12959;DHT22;6544;51.666;6.634;2023-03-23T14:54:36;15.20;99.90
12959;DHT22;6544;51.666;6.634;2023-03-23T14:57:11;15.10;99.90
12959;DHT22;6544;51.666;6.634;2023-03-23T14:59:40;15.00;99.90
12959;DHT22;6544;51.666;6.634;2023-03-23T15:02:11;14.80;99.90
12959;DHT22;6544;51.666;6.634;2023-03-23T15:04:39;14.70;99.90
12959;DHT22;6544;51.666;6.634;2023-03-23T15:07:09;14.60;99.90
12959;DHT22;6544;51.666;6.634;2023-03-23T15:09:39;14.60;99.90
12959;DHT22;6544;51.666;6.634;2023-03-23T15:12:06;14.70;99.90
12959;DHT22;6544;51.666;6.634;2023-03-23T15:14:45;14.70;99.90
12959;DHT22;6544;51.666;6.634;2023-03-23T15:17:18;14.70;99.90
12959;DHT22;6544;51.666;6.634;2023-03-23T15:19:46;14.70;99.90
12959;DHT22;6544;51.666;6.634;2023-03-23T15:22:20;14.70;99.90
12959;DHT22;6544;51.666;6.634;2023-03-23T15:24:47;14.70;99.90
12959;DHT22;6544;51.666;6.634;2023-03-23T15:27:16;14.70;99.90
12959;DHT22;6544;51.666;6.634;2023-03-23T15:29:49;14.70;99.90
12959;DHT22;6544;51.666;6.634;2023-03-23T15:32:25;14.80;99.90
12959;DHT22;6544;51.666;6.634;2023-03-23T15:34:52;14.80;99.90
12959;DHT22;6544;51.666;6.634;2023-03-23T15:37:25;14.70;99.90
12959;DHT22;6544;51.666;6.634;2023-03-23T15:39:53;14.50;99.90
12959;DHT22;6544;51.666;6.634;2023-03-23T15:42:22;14.20;99.90
12959;DHT22;6544;51.666;6.634;2023-03-23T15:45:02;13.50;99.90
12959;DHT22;6544;51.666;6.634;2023-03-23T15:47:36;13.40;99.90
12959;DHT22;6544;51.666;6.634;2023-03-23T15:50:12;13.70;99.90
12959;DHT22;6544;51.666;6.634;2023-03-23T15:52:41;13.80;99.90
12959;DHT22;6544;51.666;6.634;2023-03-23T15:55:22;13.60;99.90
12959;DHT22;6544;51.666;6.634;2023-03-23T15:57:50;13.70;99.90
12959;DHT22;6544;51.666;6.634;2023-03-23T16:00:19;13.70;99.90
12959;DHT22;6544;51.666;6.634;2023-03-23T16:02:49;14.00;99.90
12959;DHT22;6544;51.666;6.634;2023-03-23T16:05:16;14.10;99.90
12959;DHT22;6544;51.666;6.634;2023-03-23T16:07:44;14.20;99.90
12959;DHT22;6544;51.666;6.634;2023-03-23T16:10:15;14.20;99.90
12959;DHT22;6544;51.666;6.634;2023-03-23T16:12:43;14.20;99.90
12959;DHT22;6544;51.666;6.634;2023-03-23T16:15:10;14.20;99.90
12959;DHT22;6544;51.666;6.634;2023-03-23T16:17:38;14.10;99.90
12959;DHT22;6544;51.666;6.634;2023-03-23T16:20:11;14.10;99.90